TimeEDT,TemperatureF,Dew PointF,Humidity,Sea Level PressureIn,VisibilityMPH,Wind Direction,Wind SpeedMPH,Gust SpeedMPH,PrecipitationIn,Events,Conditions,WindDirDegrees,DateUTC
12:58 AM,66.0,64.0,93,29.91,8.0,South,11.5,-,N/A,,Clear,190,2013-04-12 04:58:00
1:58 AM,64.9,63.0,93,29.91,8.0,South,8.1,-,N/A,,Partly Cloudy,180,2013-04-12 05:58:00
2:39 AM,64.4,62.6,94,29.89,8.0,South,9.2,-,N/A,,Mostly Cloudy,190,2013-04-12 06:39:00
2:58 AM,66.0,64.0,93,29.89,9.0,South,10.4,-,N/A,,Overcast,180,2013-04-12 06:58:00
3:22 AM,66.2,64.4,94,29.88,8.0,South,11.5,-,N/A,,Scattered Clouds,180,2013-04-12 07:22:00
3:39 AM,66.2,64.4,94,29.88,8.0,South,11.5,-,N/A,,Mostly Cloudy,180,2013-04-12 07:39:00
3:56 AM,66.2,64.4,94,29.88,8.0,South,12.7,-,N/A,,Partly Cloudy,180,2013-04-12 07:56:00
3:58 AM,66.0,64.0,93,29.88,8.0,South,11.5,-,N/A,,Partly Cloudy,180,2013-04-12 07:58:00
4:58 AM,66.9,64.0,90,29.86,9.0,South,13.8,21.9,N/A,,Clear,180,2013-04-12 08:58:00
5:58 AM,66.0,63.0,90,29.86,8.0,South,13.8,-,N/A,,Clear,180,2013-04-12 09:58:00
6:58 AM,66.0,63.0,90,29.86,6.0,South,12.7,-,N/A,,Scattered Clouds,180,2013-04-12 10:58:00
7:58 AM,66.0,63.0,90,29.88,6.0,South,13.8,-,0.00,Rain,Light Rain,190,2013-04-12 11:58:00
8:49 AM,66.2,64.4,94,29.87,2.5,SSW,16.1,-,0.09,Rain,Rain,200,2013-04-12 12:49:00
8:58 AM,66.9,64.9,93,29.86,3.0,SSW,12.7,-,0.11,Rain,Rain,200,2013-04-12 12:58:00
9:41 AM,66.2,64.4,94,29.84,2.5,South,10.4,-,0.05,Rain,Rain,190,2013-04-12 13:41:00
9:58 AM,64.9,64.0,97,29.86,3.0,South,11.5,-,0.07,Rain,Light Rain,190,2013-04-12 13:58:00
10:19 AM,66.2,64.4,94,29.86,1.8,SSW,9.2,-,0.05,Rain,Rain,210,2013-04-12 14:19:00
10:27 AM,66.2,64.4,94,29.86,2.0,South,9.2,-,0.07,Rain,Rain,190,2013-04-12 14:27:00
10:50 AM,66.2,64.4,94,29.86,1.0,South,11.5,-,0.24,Rain,Heavy Rain,190,2013-04-12 14:50:00
10:53 AM,66.2,64.4,94,29.85,0.8,SSW,9.2,-,0.26,Rain,Heavy Rain,200,2013-04-12 14:53:00
10:58 AM,66.0,64.9,96,29.85,1.0,South,8.1,-,0.26,Rain,Light Rain,190,2013-04-12 14:58:00
11:01 AM,66.2,66.2,100,29.84,2.5,South,9.2,-,0.00,Rain,Light Rain,190,2013-04-12 15:01:00
11:03 AM,66.2,66.2,100,29.84,4.0,South,11.5,-,0.00,Rain,Light Rain,190,2013-04-12 15:03:00
11:13 AM,68.0,66.2,94,29.84,5.0,South,15.0,24.2,0.00,Rain,Light Rain,190,2013-04-12 15:13:00
11:24 AM,66.2,64.4,94,29.84,4.0,South,15.0,-,0.01,Rain,Light Rain,190,2013-04-12 15:24:00
11:39 AM,68.0,66.2,94,29.83,4.0,SSW,21.9,27.6,0.01,,Overcast,200,2013-04-12 15:39:00
11:58 AM,68.0,66.9,96,29.83,2.5,SSW,21.9,31.1,0.03,Rain,Light Rain,200,2013-04-12 15:58:00
12:58 PM,66.9,66.0,97,29.82,3.0,SSW,16.1,23.0,0.14,Rain,Rain,200,2013-04-12 16:58:00
1:06 PM,66.2,66.2,100,29.81,3.0,SSW,10.4,-,0.00,Rain,Light Rain,200,2013-04-12 17:06:00
1:23 PM,68.0,66.2,94,29.80,2.5,SSW,16.1,27.6,0.03,Rain,Rain,200,2013-04-12 17:23:00
1:34 PM,69.8,68.0,94,29.80,5.0,SSW,13.8,27.6,0.03,Rain,Light Rain,210,2013-04-12 17:34:00
1:58 PM,69.1,66.9,93,29.79,5.0,SSW,13.8,-,0.03,,Overcast,200,2013-04-12 17:58:00
2:58 PM,71.1,69.1,93,29.78,5.0,SSW,15.0,23.0,N/A,,Overcast,200,2013-04-12 18:58:00
3:08 PM,71.6,68.0,88,29.77,5.0,South,15.0,25.3,N/A,,Overcast,190,2013-04-12 19:08:00
3:58 PM,70.0,68.0,93,29.74,5.0,SSW,19.6,26.5,N/A,,Overcast,200,2013-04-12 19:58:00
4:33 PM,71.6,68.0,88,29.72,5.0,SSW,17.3,26.5,N/A,,Overcast,200,2013-04-12 20:33:00
4:56 PM,71.6,68.0,88,29.73,5.0,SSW,19.6,28.8,N/A,,Scattered Clouds,210,2013-04-12 20:56:00
4:58 PM,71.1,68.0,90,29.73,5.0,SSW,20.7,28.8,N/A,,Partly Cloudy,210,2013-04-12 20:58:00
5:38 PM,69.8,66.2,88,29.73,4.0,SSW,18.4,25.3,N/A,,Mostly Cloudy,200,2013-04-12 21:38:00
5:58 PM,69.1,66.9,93,29.72,4.0,SSW,18.4,26.5,N/A,,Overcast,200,2013-04-12 21:58:00
6:35 PM,68.0,66.2,94,29.72,4.0,SW,16.1,-,N/A,,Overcast,220,2013-04-12 22:35:00
6:58 PM,68.0,66.9,96,29.74,4.0,SSW,18.4,26.5,N/A,,Overcast,210,2013-04-12 22:58:00
7:06 PM,69.8,66.2,88,29.73,4.0,SSW,18.4,27.6,N/A,,Overcast,210,2013-04-12 23:06:00
7:16 PM,68.0,66.2,94,29.74,3.0,SSW,17.3,-,N/A,,Overcast,210,2013-04-12 23:16:00
7:31 PM,66.2,66.2,100,29.74,3.0,SW,13.8,21.9,0.00,Rain,Light Rain,220,2013-04-12 23:31:00
7:33 PM,66.2,66.2,100,29.74,2.5,SW,13.8,21.9,0.00,Rain,Light Rain,220,2013-04-12 23:33:00
7:43 PM,66.2,66.2,100,29.74,3.0,SW,16.1,-,0.00,,Overcast,220,2013-04-12 23:43:00
7:58 PM,66.9,66.0,97,29.75,4.0,SW,17.3,-,0.00,,Overcast,220,2013-04-12 23:58:00
8:17 PM,68.0,66.2,94,29.74,7.0,SW,19.6,26.5,N/A,,Mostly Cloudy,230,2013-04-13 00:17:00
8:47 PM,66.2,66.2,100,29.74,5.0,SW,9.2,-,N/A,,Overcast,220,2013-04-13 00:47:00
8:58 PM,66.0,64.9,96,29.74,5.0,SW,10.4,-,N/A,,Overcast,220,2013-04-13 00:58:00
9:09 PM,64.4,64.4,100,29.75,4.0,SSW,10.4,-,N/A,,Overcast,200,2013-04-13 01:09:00
9:36 PM,64.4,64.4,100,29.76,5.0,SW,9.2,-,N/A,,Overcast,230,2013-04-13 01:36:00
9:58 PM,66.0,64.9,96,29.76,5.0,SW,10.4,-,N/A,,Overcast,230,2013-04-13 01:58:00
10:47 PM,64.4,64.4,100,29.77,7.0,WSW,10.4,-,N/A,,Scattered Clouds,240,2013-04-13 02:47:00
10:58 PM,64.9,64.0,97,29.77,6.0,SW,10.4,-,N/A,,Clear,220,2013-04-13 02:58:00
11:11 PM,64.4,62.6,94,29.76,5.0,SW,11.5,-,N/A,,Scattered Clouds,220,2013-04-13 03:11:00
11:28 PM,64.4,62.6,94,29.75,5.0,WSW,10.4,-,N/A,,Mostly Cloudy,240,2013-04-13 03:28:00
11:40 PM,64.4,62.6,94,29.76,6.0,SW,15.0,-,N/A,,Scattered Clouds,230,2013-04-13 03:40:00
11:58 PM,64.0,63.0,96,29.76,6.0,SW,11.5,-,N/A,,Clear,220,2013-04-13 03:58:00